sensor_id;sensor_type;location;lat;lon;timestamp;P1;durP1;ratioP1;P2;durP2;ratioP2
24650;SDS011;12783;48.824;8.662;2023-05-10T00:00:24;0.50;;;0.50;;
24650;SDS011;12783;48.824;8.662;2023-05-10T00:02:51;1.88;;;0.65;;
24650;SDS011;12783;48.824;8.662;2023-05-10T00:05:19;0.60;;;0.60;;
24650;SDS011;12783;48.824;8.662;2023-05-10T00:07:46;0.82;;;0.60;;
24650;SDS011;12783;48.824;8.662;2023-05-10T00:10:12;0.70;;;0.65;;
24650;SDS011;12783;48.824;8.662;2023-05-10T00:12:40;0.90;;;0.90;;
24650;SDS011;12783;48.824;8.662;2023-05-10T00:15:08;1.63;;;0.90;;
24650;SDS011;12783;48.824;8.662;2023-05-10T00:17:35;2.25;;;1.10;;
24650;SDS011;12783;48.824;8.662;2023-05-10T00:20:02;9.68;;;1.67;;
24650;SDS011;12783;48.824;8.662;2023-05-10T00:22:31;1.63;;;1.40;;
24650;SDS011;12783;48.824;8.662;2023-05-10T00:24:59;1.88;;;1.50;;
24650;SDS011;12783;48.824;8.662;2023-05-10T00:27:26;1.50;;;1.20;;
24650;SDS011;12783;48.824;8.662;2023-05-10T00:29:53;1.45;;;1.35;;
24650;SDS011;12783;48.824;8.662;2023-05-10T00:32:19;2.78;;;1.70;;
24650;SDS011;12783;48.824;8.662;2023-05-10T00:34:47;2.25;;;1.80;;
24650;SDS011;12783;48.824;8.662;2023-05-10T00:37:14;2.60;;;2.10;;
24650;SDS011;12783;48.824;8.662;2023-05-10T00:39:41;9.55;;;2.65;;
24650;SDS011;12783;48.824;8.662;2023-05-10T00:42:08;2.90;;;2.25;;
24650;SDS011;12783;48.824;8.662;2023-05-10T00:44:34;5.65;;;2.50;;
24650;SDS011;12783;48.824;8.662;2023-05-10T00:47:01;3.75;;;2.40;;
24650;SDS011;12783;48.824;8.662;2023-05-10T00:49:28;2.88;;;2.30;;
24650;SDS011;12783;48.824;8.662;2023-05-10T00:51:55;2.85;;;2.38;;
24650;SDS011;12783;48.824;8.662;2023-05-10T00:54:23;3.60;;;2.60;;
24650;SDS011;12783;48.824;8.662;2023-05-10T00:56:50;5.25;;;2.60;;
24650;SDS011;12783;48.824;8.662;2023-05-10T00:59:18;5.15;;;2.83;;
24650;SDS011;12783;48.824;8.662;2023-05-10T01:01:46;3.10;;;2.35;;
24650;SDS011;12783;48.824;8.662;2023-05-10T01:04:13;4.20;;;2.30;;
24650;SDS011;12783;48.824;8.662;2023-05-10T01:06:41;2.53;;;2.28;;
24650;SDS011;12783;48.824;8.662;2023-05-10T01:09:09;3.35;;;2.35;;
24650;SDS011;12783;48.824;8.662;2023-05-10T01:11:38;2.72;;;2.40;;
24650;SDS011;12783;48.824;8.662;2023-05-10T01:14:06;4.97;;;1.85;;
24650;SDS011;12783;48.824;8.662;2023-05-10T01:16:34;2.45;;;2.15;;
24650;SDS011;12783;48.824;8.662;2023-05-10T01:19:05;2.00;;;1.70;;
24650;SDS011;12783;48.824;8.662;2023-05-10T01:22:02;5.13;;;1.65;;
24650;SDS011;12783;48.824;8.662;2023-05-10T01:31:02;2.38;;;1.83;;
24650;SDS011;12783;48.824;8.662;2023-05-10T01:33:52;3.45;;;2.00;;
24650;SDS011;12783;48.824;8.662;2023-05-10T01:36:40;3.35;;;1.83;;
24650;SDS011;12783;48.824;8.662;2023-05-10T01:39:20;2.70;;;2.30;;
24650;SDS011;12783;48.824;8.662;2023-05-10T01:42:08;2.40;;;2.20;;
24650;SDS011;12783;48.824;8.662;2023-05-10T01:44:42;7.68;;;2.25;;
24650;SDS011;12783;48.824;8.662;2023-05-10T01:47:46;3.10;;;2.53;;
24650;SDS011;12783;48.824;8.662;2023-05-10T01:50:17;4.47;;;2.70;;
24650;SDS011;12783;48.824;8.662;2023-05-10T01:52:53;3.35;;;2.78;;
24650;SDS011;12783;48.824;8.662;2023-05-10T01:55:24;3.33;;;3.00;;
24650;SDS011;12783;48.824;8.662;2023-05-10T01:58:00;3.85;;;3.38;;
24650;SDS011;12783;48.824;8.662;2023-05-10T02:00:35;7.68;;;3.10;;
24650;SDS011;12783;48.824;8.662;2023-05-10T02:03:04;3.45;;;2.88;;
24650;SDS011;12783;48.824;8.662;2023-05-10T02:05:35;3.38;;;3.08;;
24650;SDS011;12783;48.824;8.662;2023-05-10T02:08:03;3.55;;;2.70;;
24650;SDS011;12783;48.824;8.662;2023-05-10T02:10:34;3.10;;;2.80;;
24650;SDS011;12783;48.824;8.662;2023-05-10T02:13:02;3.25;;;2.95;;
24650;SDS011;12783;48.824;8.662;2023-05-10T02:15:32;5.32;;;3.20;;
24650;SDS011;12783;48.824;8.662;2023-05-10T02:18:00;3.95;;;3.55;;
24650;SDS011;12783;48.824;8.662;2023-05-10T02:20:30;3.50;;;3.20;;
24650;SDS011;12783;48.824;8.662;2023-05-10T02:22:58;3.58;;;3.28;;
24650;SDS011;12783;48.824;8.662;2023-05-10T02:25:28;3.97;;;3.42;;
24650;SDS011;12783;48.824;8.662;2023-05-10T02:27:56;6.70;;;3.70;;
24650;SDS011;12783;48.824;8.662;2023-05-10T02:30:26;4.18;;;3.70;;
24650;SDS011;12783;48.824;8.662;2023-05-10T02:32:53;4.13;;;3.40;;
24650;SDS011;12783;48.824;8.662;2023-05-10T02:35:22;3.13;;;2.83;;
24650;SDS011;12783;48.824;8.662;2023-05-10T02:37:50;3.67;;;3.22;;
24650;SDS011;12783;48.824;8.662;2023-05-10T02:40:17;3.42;;;3.13;;
24650;SDS011;12783;48.824;8.662;2023-05-10T02:42:45;4.25;;;2.92;;
24650;SDS011;12783;48.824;8.662;2023-05-10T02:45:16;3.90;;;3.42;;
24650;SDS011;12783;48.824;8.662;2023-05-10T02:47:47;3.70;;;2.95;;
24650;SDS011;12783;48.824;8.662;2023-05-10T02:50:14;3.28;;;2.97;;
24650;SDS011;12783;48.824;8.662;2023-05-10T02:52:43;3.20;;;2.67;;
24650;SDS011;12783;48.824;8.662;2023-05-10T02:55:14;3.70;;;2.70;;
24650;SDS011;12783;48.824;8.662;2023-05-10T02:57:46;3.13;;;2.30;;
24650;SDS011;12783;48.824;8.662;2023-05-10T03:00:22;2.25;;;2.03;;
24650;SDS011;12783;48.824;8.662;2023-05-10T03:02:51;2.22;;;2.03;;
24650;SDS011;12783;48.824;8.662;2023-05-10T03:05:18;4.20;;;1.90;;
24650;SDS011;12783;48.824;8.662;2023-05-10T03:07:46;2.88;;;2.17;;
24650;SDS011;12783;48.824;8.662;2023-05-10T03:10:13;2.05;;;1.80;;
24650;SDS011;12783;48.824;8.662;2023-05-10T03:16:06;2.25;;;1.60;;
24650;SDS011;12783;48.824;8.662;2023-05-10T03:18:43;3.42;;;1.80;;
24650;SDS011;12783;48.824;8.662;2023-05-10T03:21:20;2.13;;;1.67;;
24650;SDS011;12783;48.824;8.662;2023-05-10T03:26:52;3.75;;;1.90;;
24650;SDS011;12783;48.824;8.662;2023-05-10T03:29:22;2.67;;;1.80;;
24650;SDS011;12783;48.824;8.662;2023-05-10T03:31:53;6.60;;;1.77;;
24650;SDS011;12783;48.824;8.662;2023-05-10T03:34:24;5.97;;;2.08;;
24650;SDS011;12783;48.824;8.662;2023-05-10T03:36:51;2.10;;;1.90;;
24650;SDS011;12783;48.824;8.662;2023-05-10T03:39:18;2.15;;;1.60;;
24650;SDS011;12783;48.824;8.662;2023-05-10T03:41:46;2.13;;;1.70;;
24650;SDS011;12783;48.824;8.662;2023-05-10T03:44:13;2.25;;;1.80;;
24650;SDS011;12783;48.824;8.662;2023-05-10T03:46:40;2.10;;;1.80;;
24650;SDS011;12783;48.824;8.662;2023-05-10T03:49:07;1.90;;;1.70;;
24650;SDS011;12783;48.824;8.662;2023-05-10T03:51:34;3.17;;;1.63;;
24650;SDS011;12783;48.824;8.662;2023-05-10T03:54:01;1.67;;;1.58;;
24650;SDS011;12783;48.824;8.662;2023-05-10T03:56:28;2.20;;;2.00;;
24650;SDS011;12783;48.824;8.662;2023-05-10T03:58:55;3.20;;;1.77;;
24650;SDS011;12783;48.824;8.662;2023-05-10T04:01:21;2.15;;;1.95;;
24650;SDS011;12783;48.824;8.662;2023-05-10T04:03:48;3.22;;;2.00;;
24650;SDS011;12783;48.824;8.662;2023-05-10T04:06:15;5.30;;;2.35;;
24650;SDS011;12783;48.824;8.662;2023-05-10T04:08:42;3.08;;;2.10;;
24650;SDS011;12783;48.824;8.662;2023-05-10T04:11:09;5.10;;;2.40;;
24650;SDS011;12783;48.824;8.662;2023-05-10T04:13:37;6.97;;;2.42;;
24650;SDS011;12783;48.824;8.662;2023-05-10T04:16:04;3.58;;;2.63;;
24650;SDS011;12783;48.824;8.662;2023-05-10T04:18:32;3.85;;;2.67;;
24650;SDS011;12783;48.824;8.662;2023-05-10T04:20:59;3.45;;;2.72;;
24650;SDS011;12783;48.824;8.662;2023-05-10T04:23:26;4.22;;;2.80;;
24650;SDS011;12783;48.824;8.662;2023-05-10T04:25:58;7.57;;;2.88;;
24650;SDS011;12783;48.824;8.662;2023-05-10T04:28:27;2.90;;;2.60;;
24650;SDS011;12783;48.824;8.662;2023-05-10T04:31:00;3.85;;;3.00;;
24650;SDS011;12783;48.824;8.662;2023-05-10T04:33:36;5.85;;;3.67;;
24650;SDS011;12783;48.824;8.662;2023-05-10T04:36:04;3.58;;;3.10;;
24650;SDS011;12783;48.824;8.662;2023-05-10T04:38:31;4.47;;;3.20;;
24650;SDS011;12783;48.824;8.662;2023-05-10T04:41:08;9.75;;;3.58;;
24650;SDS011;12783;48.824;8.662;2023-05-10T04:43:37;5.75;;;3.67;;
24650;SDS011;12783;48.824;8.662;2023-05-10T04:46:05;5.82;;;3.60;;
24650;SDS011;12783;48.824;8.662;2023-05-10T04:48:33;3.92;;;3.53;;
24650;SDS011;12783;48.824;8.662;2023-05-10T04:51:00;4.85;;;3.05;;
24650;SDS011;12783;48.824;8.662;2023-05-10T04:53:27;3.33;;;2.78;;
24650;SDS011;12783;48.824;8.662;2023-05-10T04:55:54;6.05;;;3.17;;
24650;SDS011;12783;48.824;8.662;2023-05-10T04:58:21;4.82;;;3.05;;
24650;SDS011;12783;48.824;8.662;2023-05-10T05:00:48;9.00;;;3.20;;
24650;SDS011;12783;48.824;8.662;2023-05-10T05:03:15;6.43;;;4.07;;
24650;SDS011;12783;48.824;8.662;2023-05-10T05:05:43;4.97;;;3.45;;
24650;SDS011;12783;48.824;8.662;2023-05-10T05:08:10;4.63;;;3.72;;
24650;SDS011;12783;48.824;8.662;2023-05-10T05:10:37;6.50;;;3.42;;
24650;SDS011;12783;48.824;8.662;2023-05-10T05:13:04;5.28;;;3.08;;
24650;SDS011;12783;48.824;8.662;2023-05-10T05:15:31;3.92;;;3.13;;
24650;SDS011;12783;48.824;8.662;2023-05-10T05:17:59;3.85;;;2.90;;
24650;SDS011;12783;48.824;8.662;2023-05-10T05:20:25;7.20;;;3.00;;
24650;SDS011;12783;48.824;8.662;2023-05-10T05:22:53;3.78;;;2.75;;
24650;SDS011;12783;48.824;8.662;2023-05-10T05:25:20;5.57;;;3.03;;
24650;SDS011;12783;48.824;8.662;2023-05-10T05:27:47;7.78;;;2.85;;
24650;SDS011;12783;48.824;8.662;2023-05-10T05:30:13;3.20;;;2.78;;
24650;SDS011;12783;48.824;8.662;2023-05-10T05:32:41;2.95;;;2.42;;
24650;SDS011;12783;48.824;8.662;2023-05-10T05:35:08;3.60;;;2.22;;
24650;SDS011;12783;48.824;8.662;2023-05-10T05:37:35;3.95;;;2.63;;
24650;SDS011;12783;48.824;8.662;2023-05-10T05:40:02;5.40;;;2.53;;
24650;SDS011;12783;48.824;8.662;2023-05-10T05:42:30;3.65;;;2.40;;
24650;SDS011;12783;48.824;8.662;2023-05-10T05:44:57;2.92;;;2.03;;
24650;SDS011;12783;48.824;8.662;2023-05-10T05:47:25;3.33;;;2.10;;
24650;SDS011;12783;48.824;8.662;2023-05-10T05:49:52;2.75;;;2.10;;
24650;SDS011;12783;48.824;8.662;2023-05-10T05:52:18;2.30;;;1.90;;
24650;SDS011;12783;48.824;8.662;2023-05-10T05:54:45;4.85;;;2.00;;
24650;SDS011;12783;48.824;8.662;2023-05-10T05:57:12;4.78;;;1.63;;
24650;SDS011;12783;48.824;8.662;2023-05-10T05:59:39;2.55;;;1.67;;
24650;SDS011;12783;48.824;8.662;2023-05-10T06:02:10;1.92;;;1.50;;
24650;SDS011;12783;48.824;8.662;2023-05-10T06:04:37;2.80;;;1.70;;
24650;SDS011;12783;48.824;8.662;2023-05-10T06:07:04;1.58;;;1.48;;
24650;SDS011;12783;48.824;8.662;2023-05-10T06:09:31;3.38;;;1.40;;
24650;SDS011;12783;48.824;8.662;2023-05-10T06:11:58;1.63;;;1.38;;
24650;SDS011;12783;48.824;8.662;2023-05-10T06:14:25;1.20;;;1.05;;
24650;SDS011;12783;48.824;8.662;2023-05-10T06:16:52;1.00;;;1.00;;
24650;SDS011;12783;48.824;8.662;2023-05-10T06:19:19;1.67;;;1.10;;
24650;SDS011;12783;48.824;8.662;2023-05-10T06:21:46;1.33;;;1.20;;
24650;SDS011;12783;48.824;8.662;2023-05-10T06:24:13;2.97;;;1.00;;
24650;SDS011;12783;48.824;8.662;2023-05-10T06:26:39;1.33;;;1.05;;
24650;SDS011;12783;48.824;8.662;2023-05-10T06:29:06;2.92;;;1.10;;
24650;SDS011;12783;48.824;8.662;2023-05-10T06:31:33;1.73;;;0.93;;
24650;SDS011;12783;48.824;8.662;2023-05-10T06:34:00;0.98;;;0.90;;
24650;SDS011;12783;48.824;8.662;2023-05-10T06:36:27;1.00;;;0.90;;
24650;SDS011;12783;48.824;8.662;2023-05-10T06:38:54;1.67;;;0.90;;
24650;SDS011;12783;48.824;8.662;2023-05-10T06:41:21;3.70;;;0.65;;
24650;SDS011;12783;48.824;8.662;2023-05-10T06:43:50;1.40;;;0.73;;
24650;SDS011;12783;48.824;8.662;2023-05-10T06:46:16;4.57;;;1.00;;
24650;SDS011;12783;48.824;8.662;2023-05-10T06:48:43;0.65;;;0.65;;
24650;SDS011;12783;48.824;8.662;2023-05-10T06:51:11;4.65;;;0.98;;
24650;SDS011;12783;48.824;8.662;2023-05-10T06:53:37;0.95;;;0.80;;
24650;SDS011;12783;48.824;8.662;2023-05-10T06:56:04;2.08;;;0.57;;
24650;SDS011;12783;48.824;8.662;2023-05-10T06:58:31;4.72;;;0.60;;
24650;SDS011;12783;48.824;8.662;2023-05-10T07:01:02;0.80;;;0.63;;
24650;SDS011;12783;48.824;8.662;2023-05-10T07:03:31;1.42;;;0.63;;
24650;SDS011;12783;48.824;8.662;2023-05-10T07:06:01;0.40;;;0.40;;
24650;SDS011;12783;48.824;8.662;2023-05-10T07:08:33;4.50;;;0.60;;
24650;SDS011;12783;48.824;8.662;2023-05-10T07:11:04;0.30;;;0.30;;
24650;SDS011;12783;48.824;8.662;2023-05-10T07:13:34;3.92;;;2.22;;
24650;SDS011;12783;48.824;8.662;2023-05-10T07:16:02;2.33;;;0.70;;
24650;SDS011;12783;48.824;8.662;2023-05-10T07:18:30;1.48;;;0.40;;
24650;SDS011;12783;48.824;8.662;2023-05-10T07:20:57;1.27;;;0.57;;
24650;SDS011;12783;48.824;8.662;2023-05-10T07:23:24;0.82;;;0.70;;
24650;SDS011;12783;48.824;8.662;2023-05-10T07:25:51;0.40;;;0.40;;
24650;SDS011;12783;48.824;8.662;2023-05-10T07:28:18;1.65;;;0.60;;
24650;SDS011;12783;48.824;8.662;2023-05-10T07:30:45;1.33;;;0.60;;
24650;SDS011;12783;48.824;8.662;2023-05-10T07:33:13;0.50;;;0.50;;
24650;SDS011;12783;48.824;8.662;2023-05-10T07:35:41;3.22;;;0.60;;
24650;SDS011;12783;48.824;8.662;2023-05-10T07:38:09;2.00;;;0.60;;
24650;SDS011;12783;48.824;8.662;2023-05-10T07:40:39;1.98;;;0.50;;
24650;SDS011;12783;48.824;8.662;2023-05-10T07:43:05;1.33;;;0.43;;
24650;SDS011;12783;48.824;8.662;2023-05-10T07:45:33;1.65;;;0.40;;
24650;SDS011;12783;48.824;8.662;2023-05-10T07:48:00;0.30;;;0.30;;
24650;SDS011;12783;48.824;8.662;2023-05-10T07:50:27;1.23;;;0.40;;
24650;SDS011;12783;48.824;8.662;2023-05-10T07:52:54;0.65;;;0.25;;
24650;SDS011;12783;48.824;8.662;2023-05-10T07:55:21;3.10;;;0.80;;
24650;SDS011;12783;48.824;8.662;2023-05-10T07:57:48;1.00;;;0.90;;
24650;SDS011;12783;48.824;8.662;2023-05-10T08:00:19;1.20;;;0.55;;
24650;SDS011;12783;48.824;8.662;2023-05-10T08:02:46;3.30;;;0.50;;
24650;SDS011;12783;48.824;8.662;2023-05-10T08:05:14;4.45;;;3.70;;
24650;SDS011;12783;48.824;8.662;2023-05-10T08:07:41;3.95;;;0.60;;
24650;SDS011;12783;48.824;8.662;2023-05-10T08:10:09;0.95;;;0.40;;
24650;SDS011;12783;48.824;8.662;2023-05-10T08:12:37;0.52;;;0.47;;
24650;SDS011;12783;48.824;8.662;2023-05-10T08:15:05;0.98;;;0.55;;
24650;SDS011;12783;48.824;8.662;2023-05-10T08:17:33;2.95;;;0.68;;
24650;SDS011;12783;48.824;8.662;2023-05-10T08:20:00;0.57;;;0.57;;
24650;SDS011;12783;48.824;8.662;2023-05-10T08:22:27;1.95;;;0.70;;
24650;SDS011;12783;48.824;8.662;2023-05-10T08:24:54;1.98;;;0.55;;
24650;SDS011;12783;48.824;8.662;2023-05-10T08:27:22;1.27;;;0.50;;
24650;SDS011;12783;48.824;8.662;2023-05-10T08:29:48;0.82;;;0.50;;
24650;SDS011;12783;48.824;8.662;2023-05-10T08:32:16;0.82;;;0.63;;
24650;SDS011;12783;48.824;8.662;2023-05-10T08:34:44;1.42;;;0.50;;
24650;SDS011;12783;48.824;8.662;2023-05-10T08:37:12;0.88;;;0.70;;
24650;SDS011;12783;48.824;8.662;2023-05-10T08:39:39;5.65;;;0.98;;
24650;SDS011;12783;48.824;8.662;2023-05-10T08:42:07;0.50;;;0.50;;
24650;SDS011;12783;48.824;8.662;2023-05-10T08:44:36;4.03;;;0.80;;
24650;SDS011;12783;48.824;8.662;2023-05-10T08:47:06;2.58;;;0.70;;
24650;SDS011;12783;48.824;8.662;2023-05-10T08:49:35;0.82;;;0.50;;
24650;SDS011;12783;48.824;8.662;2023-05-10T08:52:04;1.00;;;0.80;;
24650;SDS011;12783;48.824;8.662;2023-05-10T08:54:33;1.20;;;0.55;;
24650;SDS011;12783;48.824;8.662;2023-05-10T08:57:00;0.88;;;0.60;;
24650;SDS011;12783;48.824;8.662;2023-05-10T08:59:27;1.48;;;0.47;;
24650;SDS011;12783;48.824;8.662;2023-05-10T09:01:58;1.38;;;0.50;;
24650;SDS011;12783;48.824;8.662;2023-05-10T09:04:25;2.53;;;0.40;;
24650;SDS011;12783;48.824;8.662;2023-05-10T09:06:54;1.25;;;0.70;;
24650;SDS011;12783;48.824;8.662;2023-05-10T09:09:21;0.90;;;0.68;;
24650;SDS011;12783;48.824;8.662;2023-05-10T09:11:51;2.25;;;0.40;;
24650;SDS011;12783;48.824;8.662;2023-05-10T09:14:19;2.38;;;0.80;;
24650;SDS011;12783;48.824;8.662;2023-05-10T09:16:46;2.17;;;0.70;;
24650;SDS011;12783;48.824;8.662;2023-05-10T09:19:14;2.90;;;0.60;;
24650;SDS011;12783;48.824;8.662;2023-05-10T09:21:41;1.50;;;0.50;;
24650;SDS011;12783;48.824;8.662;2023-05-10T09:24:08;3.15;;;0.50;;
24650;SDS011;12783;48.824;8.662;2023-05-10T09:26:35;1.02;;;0.63;;
24650;SDS011;12783;48.824;8.662;2023-05-10T09:29:12;3.22;;;0.70;;
24650;SDS011;12783;48.824;8.662;2023-05-10T09:31:43;2.25;;;0.55;;
24650;SDS011;12783;48.824;8.662;2023-05-10T09:34:18;0.38;;;0.38;;
24650;SDS011;12783;48.824;8.662;2023-05-10T09:36:53;1.08;;;0.50;;
24650;SDS011;12783;48.824;8.662;2023-05-10T09:42:06;2.97;;;0.70;;
24650;SDS011;12783;48.824;8.662;2023-05-10T09:44:35;0.70;;;0.70;;
24650;SDS011;12783;48.824;8.662;2023-05-10T09:47:07;1.98;;;0.70;;
24650;SDS011;12783;48.824;8.662;2023-05-10T09:49:34;1.27;;;0.70;;
24650;SDS011;12783;48.824;8.662;2023-05-10T09:52:04;1.30;;;0.55;;
24650;SDS011;12783;48.824;8.662;2023-05-10T09:54:42;0.40;;;0.35;;
24650;SDS011;12783;48.824;8.662;2023-05-10T09:57:22;1.60;;;0.57;;
24650;SDS011;12783;48.824;8.662;2023-05-10T09:59:54;2.88;;;0.60;;
24650;SDS011;12783;48.824;8.662;2023-05-10T10:02:21;4.85;;;0.43;;
24650;SDS011;12783;48.824;8.662;2023-05-10T10:04:55;1.13;;;0.60;;
24650;SDS011;12783;48.824;8.662;2023-05-10T10:07:29;1.97;;;0.60;;
24650;SDS011;12783;48.824;8.662;2023-05-10T10:10:00;1.83;;;0.77;;
24650;SDS011;12783;48.824;8.662;2023-05-10T10:12:27;2.72;;;0.60;;
24650;SDS011;12783;48.824;8.662;2023-05-10T10:14:54;5.93;;;0.98;;
24650;SDS011;12783;48.824;8.662;2023-05-10T10:17:22;0.90;;;0.55;;
24650;SDS011;12783;48.824;8.662;2023-05-10T10:19:54;1.50;;;0.68;;
24650;SDS011;12783;48.824;8.662;2023-05-10T10:22:23;1.15;;;0.60;;
24650;SDS011;12783;48.824;8.662;2023-05-10T10:24:50;2.05;;;0.85;;
24650;SDS011;12783;48.824;8.662;2023-05-10T10:27:24;0.75;;;0.70;;
24650;SDS011;12783;48.824;8.662;2023-05-10T10:36:07;3.40;;;1.10;;
24650;SDS011;12783;48.824;8.662;2023-05-10T10:41:32;4.15;;;0.82;;
24650;SDS011;12783;48.824;8.662;2023-05-10T10:55:19;1.58;;;0.73;;
24650;SDS011;12783;48.824;8.662;2023-05-10T10:57:51;1.55;;;0.77;;
24650;SDS011;12783;48.824;8.662;2023-05-10T11:00:28;1.38;;;0.82;;
24650;SDS011;12783;48.824;8.662;2023-05-10T11:05:46;1.55;;;0.80;;
24650;SDS011;12783;48.824;8.662;2023-05-10T11:13:27;4.20;;;1.05;;
24650;SDS011;12783;48.824;8.662;2023-05-10T11:15:59;2.25;;;0.82;;
24650;SDS011;12783;48.824;8.662;2023-05-10T11:19:06;1.95;;;1.00;;
24650;SDS011;12783;48.824;8.662;2023-05-10T11:24:32;2.72;;;0.93;;
24650;SDS011;12783;48.824;8.662;2023-05-10T11:26:59;2.78;;;1.77;;
24650;SDS011;12783;48.824;8.662;2023-05-10T11:29:27;6.88;;;0.88;;
24650;SDS011;12783;48.824;8.662;2023-05-10T11:31:56;2.38;;;1.15;;
24650;SDS011;12783;48.824;8.662;2023-05-10T11:34:28;1.60;;;1.05;;
24650;SDS011;12783;48.824;8.662;2023-05-10T11:36:59;4.60;;;1.33;;
24650;SDS011;12783;48.824;8.662;2023-05-10T11:39:27;3.63;;;1.02;;
24650;SDS011;12783;48.824;8.662;2023-05-10T11:41:56;2.85;;;1.00;;
24650;SDS011;12783;48.824;8.662;2023-05-10T11:44:31;5.72;;;0.88;;
24650;SDS011;12783;48.824;8.662;2023-05-10T11:47:01;7.13;;;1.00;;
24650;SDS011;12783;48.824;8.662;2023-05-10T11:49:29;2.63;;;1.23;;
24650;SDS011;12783;48.824;8.662;2023-05-10T11:52:06;3.03;;;0.90;;
24650;SDS011;12783;48.824;8.662;2023-05-10T11:54:34;2.15;;;0.77;;
24650;SDS011;12783;48.824;8.662;2023-05-10T11:57:01;3.58;;;0.88;;
24650;SDS011;12783;48.824;8.662;2023-05-10T11:59:29;3.83;;;1.08;;
24650;SDS011;12783;48.824;8.662;2023-05-10T12:01:56;1.63;;;0.88;;
24650;SDS011;12783;48.824;8.662;2023-05-10T12:04:23;1.48;;;1.10;;
24650;SDS011;12783;48.824;8.662;2023-05-10T12:06:50;4.55;;;1.10;;
24650;SDS011;12783;48.824;8.662;2023-05-10T12:09:17;3.67;;;1.10;;
24650;SDS011;12783;48.824;8.662;2023-05-10T12:12:04;1.20;;;1.10;;
24650;SDS011;12783;48.824;8.662;2023-05-10T12:14:33;2.63;;;1.23;;
24650;SDS011;12783;48.824;8.662;2023-05-10T12:17:01;3.85;;;1.00;;
24650;SDS011;12783;48.824;8.662;2023-05-10T12:19:28;1.20;;;0.73;;
24650;SDS011;12783;48.824;8.662;2023-05-10T12:22:07;3.80;;;0.88;;
24650;SDS011;12783;48.824;8.662;2023-05-10T12:24:34;1.20;;;0.90;;
24650;SDS011;12783;48.824;8.662;2023-05-10T12:27:04;4.13;;;1.00;;
24650;SDS011;12783;48.824;8.662;2023-05-10T12:29:34;4.07;;;0.80;;
24650;SDS011;12783;48.824;8.662;2023-05-10T12:32:01;2.63;;;0.85;;
24650;SDS011;12783;48.824;8.662;2023-05-10T12:34:33;2.20;;;0.95;;
24650;SDS011;12783;48.824;8.662;2023-05-10T12:37:02;1.10;;;0.70;;
24650;SDS011;12783;48.824;8.662;2023-05-10T12:39:42;3.70;;;0.95;;
24650;SDS011;12783;48.824;8.662;2023-05-10T12:42:11;1.88;;;0.80;;
24650;SDS011;12783;48.824;8.662;2023-05-10T12:44:38;6.60;;;0.63;;
24650;SDS011;12783;48.824;8.662;2023-05-10T12:47:06;6.45;;;1.00;;
24650;SDS011;12783;48.824;8.662;2023-05-10T12:49:33;1.13;;;0.68;;
24650;SDS011;12783;48.824;8.662;2023-05-10T12:52:00;3.83;;;0.68;;
24650;SDS011;12783;48.824;8.662;2023-05-10T12:54:27;0.60;;;0.60;;
24650;SDS011;12783;48.824;8.662;2023-05-10T12:56:54;1.95;;;0.82;;
24650;SDS011;12783;48.824;8.662;2023-05-10T12:59:21;4.65;;;0.80;;
24650;SDS011;12783;48.824;8.662;2023-05-10T13:01:49;1.42;;;0.60;;
24650;SDS011;12783;48.824;8.662;2023-05-10T13:04:15;2.70;;;0.80;;
24650;SDS011;12783;48.824;8.662;2023-05-10T13:06:42;3.60;;;0.77;;
24650;SDS011;12783;48.824;8.662;2023-05-10T13:09:09;3.65;;;0.80;;
24650;SDS011;12783;48.824;8.662;2023-05-10T13:11:36;2.42;;;0.90;;
24650;SDS011;12783;48.824;8.662;2023-05-10T13:14:03;3.20;;;0.98;;
24650;SDS011;12783;48.824;8.662;2023-05-10T13:16:31;1.38;;;0.73;;
24650;SDS011;12783;48.824;8.662;2023-05-10T13:18:58;1.38;;;0.60;;
24650;SDS011;12783;48.824;8.662;2023-05-10T13:21:25;4.05;;;0.80;;
24650;SDS011;12783;48.824;8.662;2023-05-10T13:23:52;1.77;;;0.77;;
24650;SDS011;12783;48.824;8.662;2023-05-10T13:26:19;3.92;;;0.90;;
24650;SDS011;12783;48.824;8.662;2023-05-10T13:28:46;2.65;;;0.70;;
24650;SDS011;12783;48.824;8.662;2023-05-10T13:31:14;3.75;;;0.70;;
24650;SDS011;12783;48.824;8.662;2023-05-10T13:33:41;1.88;;;0.98;;
24650;SDS011;12783;48.824;8.662;2023-05-10T13:36:08;4.70;;;0.85;;
24650;SDS011;12783;48.824;8.662;2023-05-10T13:38:35;1.13;;;0.70;;
24650;SDS011;12783;48.824;8.662;2023-05-10T13:41:02;1.83;;;0.70;;
24650;SDS011;12783;48.824;8.662;2023-05-10T13:43:29;1.15;;;0.82;;
24650;SDS011;12783;48.824;8.662;2023-05-10T13:45:56;1.98;;;0.60;;
24650;SDS011;12783;48.824;8.662;2023-05-10T13:48:23;2.92;;;0.60;;
24650;SDS011;12783;48.824;8.662;2023-05-10T13:50:50;1.60;;;0.60;;
24650;SDS011;12783;48.824;8.662;2023-05-10T13:53:17;3.53;;;0.70;;
24650;SDS011;12783;48.824;8.662;2023-05-10T13:55:44;2.83;;;0.50;;
24650;SDS011;12783;48.824;8.662;2023-05-10T13:58:11;0.63;;;0.40;;
24650;SDS011;12783;48.824;8.662;2023-05-10T14:00:38;1.25;;;0.50;;
24650;SDS011;12783;48.824;8.662;2023-05-10T14:03:05;2.20;;;0.40;;
24650;SDS011;12783;48.824;8.662;2023-05-10T14:05:33;3.17;;;0.70;;
24650;SDS011;12783;48.824;8.662;2023-05-10T14:07:59;2.75;;;0.70;;
24650;SDS011;12783;48.824;8.662;2023-05-10T14:10:26;1.17;;;0.55;;
24650;SDS011;12783;48.824;8.662;2023-05-10T14:12:53;3.97;;;0.70;;
24650;SDS011;12783;48.824;8.662;2023-05-10T14:15:20;4.28;;;0.60;;
24650;SDS011;12783;48.824;8.662;2023-05-10T14:17:47;4.05;;;0.40;;
24650;SDS011;12783;48.824;8.662;2023-05-10T14:20:14;0.85;;;0.50;;
24650;SDS011;12783;48.824;8.662;2023-05-10T14:22:41;1.55;;;0.70;;
24650;SDS011;12783;48.824;8.662;2023-05-10T14:25:08;3.72;;;0.57;;
24650;SDS011;12783;48.824;8.662;2023-05-10T14:27:35;1.05;;;0.88;;
24650;SDS011;12783;48.824;8.662;2023-05-10T14:30:02;4.38;;;0.73;;
24650;SDS011;12783;48.824;8.662;2023-05-10T14:32:29;2.53;;;0.50;;
24650;SDS011;12783;48.824;8.662;2023-05-10T14:34:58;2.65;;;0.50;;
24650;SDS011;12783;48.824;8.662;2023-05-10T14:37:25;1.77;;;0.50;;
24650;SDS011;12783;48.824;8.662;2023-05-10T14:39:53;0.98;;;0.68;;
24650;SDS011;12783;48.824;8.662;2023-05-10T14:42:20;3.47;;;0.50;;
24650;SDS011;12783;48.824;8.662;2023-05-10T14:44:47;1.65;;;0.40;;
24650;SDS011;12783;48.824;8.662;2023-05-10T14:47:14;2.13;;;0.50;;
24650;SDS011;12783;48.824;8.662;2023-05-10T14:49:41;5.53;;;0.57;;
24650;SDS011;12783;48.824;8.662;2023-05-10T14:52:08;0.52;;;0.52;;
24650;SDS011;12783;48.824;8.662;2023-05-10T14:54:35;0.57;;;0.50;;
24650;SDS011;12783;48.824;8.662;2023-05-10T14:57:02;1.35;;;0.60;;
24650;SDS011;12783;48.824;8.662;2023-05-10T14:59:29;2.75;;;0.38;;
24650;SDS011;12783;48.824;8.662;2023-05-10T15:01:56;1.52;;;0.65;;
24650;SDS011;12783;48.824;8.662;2023-05-10T15:04:23;1.25;;;0.40;;
24650;SDS011;12783;48.824;8.662;2023-05-10T15:06:54;1.85;;;0.60;;
24650;SDS011;12783;48.824;8.662;2023-05-10T15:09:25;1.65;;;0.75;;
24650;SDS011;12783;48.824;8.662;2023-05-10T15:11:54;0.60;;;0.30;;
24650;SDS011;12783;48.824;8.662;2023-05-10T15:14:21;2.58;;;0.63;;
24650;SDS011;12783;48.824;8.662;2023-05-10T15:16:49;4.07;;;0.45;;
24650;SDS011;12783;48.824;8.662;2023-05-10T15:19:16;0.63;;;0.45;;
24650;SDS011;12783;48.824;8.662;2023-05-10T15:21:43;0.95;;;0.40;;
24650;SDS011;12783;48.824;8.662;2023-05-10T15:24:10;1.48;;;0.73;;
24650;SDS011;12783;48.824;8.662;2023-05-10T15:26:37;5.32;;;1.13;;
24650;SDS011;12783;48.824;8.662;2023-05-10T15:29:04;0.80;;;0.40;;
24650;SDS011;12783;48.824;8.662;2023-05-10T15:31:31;2.33;;;0.82;;
24650;SDS011;12783;48.824;8.662;2023-05-10T15:34:01;3.58;;;1.30;;
24650;SDS011;12783;48.824;8.662;2023-05-10T15:36:28;11.75;;;2.63;;
24650;SDS011;12783;48.824;8.662;2023-05-10T15:38:55;3.17;;;1.00;;
24650;SDS011;12783;48.824;8.662;2023-05-10T15:41:22;1.52;;;0.28;;
24650;SDS011;12783;48.824;8.662;2023-05-10T15:43:49;0.70;;;0.30;;